Time;durP1;ratioP1;P1;durP2;ratioP2;P2;SDS_P1;SDS_P2;PMS_P1;PMS_P2;Temp;Humidity;BMP_temperature;BMP_pressure;BME280_temperature;BME280_humidity;BME280_pressure;Samples;Min_cycle;Max_cycle;Signal;HPM_P1;HPM_P2
2022/05/21 00:00:30;;;;;;;2.80;2.30;;;20.10;46.90;;;;;;5013993;28;20022;-66
2022/05/21 00:02:57;;;;;;;2.90;2.20;;;20.10;46.90;;;;;;5014041;28;20091;-66
2022/05/21 00:05:25;;;;;;;2.83;2.10;;;20.10;47.00;;;;;;5013356;28;20084;-66
2022/05/21 00:07:51;;;;;;;2.90;2.47;;;20.10;46.90;;;;;;5012952;28;20026;-66
2022/05/21 00:10:18;;;;;;;2.92;2.20;;;20.00;46.90;;;;;;5012929;28;20033;-67
2022/05/21 00:12:44;;;;;;;3.85;2.40;;;20.10;46.90;;;;;;5013352;28;20168;-67
2022/05/21 00:15:12;;;;;;;3.88;2.20;;;20.00;46.90;;;;;;5013349;28;20026;-68
2022/05/21 00:17:38;;;;;;;3.03;2.20;;;20.00;46.90;;;;;;5013789;28;20022;-67
2022/05/21 00:20:07;;;;;;;2.90;2.15;;;20.00;46.90;;;;;;5013835;28;20041;-67
2022/05/21 00:22:33;;;;;;;2.92;2.40;;;20.00;46.90;;;;;;5012678;28;20034;-67
2022/05/21 00:24:58;;;;;;;2.38;2.17;;;20.00;46.90;;;;;;5012555;28;20511;-67
2022/05/21 00:27:24;;;;;;;3.65;2.35;;;20.00;47.50;;;;;;5013762;28;20057;-67
2022/05/21 00:29:50;;;;;;;5.43;2.30;;;19.90;46.90;;;;;;5013590;28;20060;-67
2022/05/21 00:32:16;;;;;;;2.90;2.30;;;19.90;46.90;;;;;;5012694;28;20033;-67
2022/05/21 00:34:41;;;;;;;2.60;2.00;;;19.90;46.90;;;;;;5013666;28;20452;-67
2022/05/21 00:37:07;;;;;;;2.78;2.20;;;19.90;46.90;;;;;;5016157;28;20026;-67
2022/05/21 00:39:33;;;;;;;2.50;2.03;;;19.90;46.90;;;;;;5018178;28;20060;-67
2022/05/21 00:42:06;;;;;;;2.67;2.10;;;19.90;46.90;;;;;;5017775;28;20030;-67
2022/05/21 00:44:31;;;;;;;2.50;2.00;;;19.80;46.90;;;;;;5016085;28;20057;-67
2022/05/21 00:46:57;;;;;;;2.47;1.98;;;19.90;46.90;;;;;;5017899;28;20053;-67
2022/05/21 00:49:29;;;;;;;3.65;2.30;;;19.80;46.90;;;;;;5017970;28;20161;-67
2022/05/21 00:52:07;;;;;;;2.75;2.10;;;19.80;46.90;;;;;;5016689;28;20113;-67
2022/05/21 00:54:36;;;;;;;4.68;2.20;;;19.80;46.90;;;;;;5016235;28;20468;-67
2022/05/21 00:57:08;;;;;;;3.80;2.10;;;19.80;46.90;;;;;;5017420;28;20453;-67
2022/05/21 00:59:50;;;;;;;2.38;1.98;;;19.80;46.90;;;;;;5017109;28;20026;-67
2022/05/21 01:02:32;;;;;;;2.10;1.83;;;19.80;46.90;;;;;;5015400;28;20408;-67
2022/05/21 01:05:00;;;;;;;3.10;2.10;;;19.80;46.90;;;;;;5016110;28;20148;-67
2022/05/21 01:07:26;;;;;;;2.67;1.83;;;19.80;46.90;;;;;;5017000;28;20030;-67
2022/05/21 01:09:54;;;;;;;3.03;2.17;;;19.80;47.00;;;;;;5016656;28;20034;-67
2022/05/21 01:12:24;;;;;;;2.30;2.10;;;19.70;46.90;;;;;;5027625;28;20443;-67
2022/05/21 01:14:54;;;;;;;2.55;2.30;;;19.70;46.90;;;;;;5036878;28;20026;-66
2022/05/21 01:17:20;;;;;;;3.42;2.20;;;19.70;46.90;;;;;;5036795;28;20087;-66
2022/05/21 01:19:53;;;;;;;3.67;2.13;;;19.70;46.90;;;;;;5036677;28;20064;-66
2022/05/21 01:22:25;;;;;;;3.10;2.10;;;19.70;47.00;;;;;;5036796;28;20479;-67
2022/05/21 01:24:51;;;;;;;2.83;2.03;;;19.70;47.00;;;;;;5026368;28;20477;-66
2022/05/21 01:27:17;;;;;;;2.88;2.20;;;19.70;46.90;;;;;;5017214;28;20025;-66
2022/05/21 01:29:44;;;;;;;4.05;2.20;;;19.70;46.90;;;;;;5016745;28;20026;-66
2022/05/21 01:32:16;;;;;;;3.10;1.90;;;19.70;46.90;;;;;;5016952;28;20033;-66
2022/05/21 01:34:42;;;;;;;2.13;1.90;;;19.70;46.90;;;;;;5015566;28;20030;-66
2022/05/21 01:37:08;;;;;;;2.50;2.00;;;19.60;46.80;;;;;;5023665;28;20029;-66
2022/05/21 01:39:33;;;;;;;3.30;2.33;;;19.60;46.80;;;;;;5031401;28;20033;-66
2022/05/21 01:41:59;;;;;;;3.00;2.17;;;19.60;46.80;;;;;;5016622;28;20032;-66
2022/05/21 01:44:40;;;;;;;3.38;2.17;;;19.60;46.80;;;;;;5028371;28;20033;-67
2022/05/21 01:47:11;;;;;;;1.77;1.67;;;19.60;46.80;;;;;;5016032;28;20172;-67
2022/05/21 01:49:39;;;;;;;2.97;2.00;;;19.60;46.70;;;;;;5031942;28;20033;-67
2022/05/21 01:52:06;;;;;;;2.78;1.90;;;19.60;46.70;;;;;;5034888;28;20025;-67
2022/05/21 01:54:33;;;;;;;3.58;2.30;;;19.60;46.70;;;;;;5036223;28;20391;-67
2022/05/21 01:56:59;;;;;;;3.03;2.15;;;19.60;46.70;;;;;;5027372;28;20048;-67
2022/05/21 01:59:26;;;;;;;2.67;2.15;;;19.60;46.70;;;;;;5016074;28;20034;-67
2022/05/21 02:01:52;;;;;;;2.13;1.92;;;19.60;46.70;;;;;;5016414;28;20030;-67
2022/05/21 02:04:18;;;;;;;2.80;2.03;;;19.60;46.70;;;;;;5014988;28;20026;-67
2022/05/21 02:06:44;;;;;;;2.55;1.80;;;19.60;46.70;;;;;;5029680;28;20025;-67
2022/05/21 02:09:11;;;;;;;3.95;2.13;;;19.60;46.60;;;;;;5034724;28;20399;-67
2022/05/21 02:11:38;;;;;;;4.32;2.25;;;19.60;46.70;;;;;;5034500;28;20061;-67
2022/05/21 02:14:05;;;;;;;3.50;2.17;;;19.60;46.70;;;;;;5035839;28;20033;-67
2022/05/21 02:16:33;;;;;;;2.28;2.00;;;19.60;46.60;;;;;;5024230;28;20026;-66
2022/05/21 02:19:01;;;;;;;2.10;1.90;;;19.60;46.60;;;;;;5015052;28;20029;-66
2022/05/21 02:21:31;;;;;;;2.55;2.00;;;19.60;46.60;;;;;;5020655;28;20033;-67
2022/05/21 02:23:57;;;;;;;2.33;1.85;;;19.60;46.60;;;;;;5034933;28;20360;-67
2022/05/21 02:26:23;;;;;;;2.55;2.05;;;19.60;46.70;;;;;;5035202;28;20052;-67
2022/05/21 02:28:48;;;;;;;2.25;1.98;;;19.60;47.20;;;;;;5035670;28;20029;-66
2022/05/21 02:31:14;;;;;;;2.40;2.00;;;19.60;46.60;;;;;;5035552;28;20033;-66
2022/05/21 02:33:40;;;;;;;2.20;1.80;;;19.60;46.70;;;;;;5035532;28;20053;-66
2022/05/21 02:36:07;;;;;;;2.08;1.88;;;19.60;46.60;;;;;;5035419;28;20021;-66
2022/05/21 02:41:17;;;;;;;2.20;2.00;;;19.60;47.20;;;;;;5035397;28;20044;-66
2022/05/21 02:43:44;;;;;;;2.72;2.05;;;19.70;46.60;;;;;;5035278;28;20112;-67
2022/05/21 02:46:14;;;;;;;4.50;2.15;;;19.60;46.60;;;;;;5034887;28;20037;-66
2022/05/21 02:48:40;;;;;;;3.17;1.90;;;19.70;46.60;;;;;;5034940;28;20450;-66
2022/05/21 02:51:08;;;;;;;2.75;2.10;;;19.70;46.60;;;;;;5035165;28;20460;-66
2022/05/21 02:53:33;;;;;;;2.67;2.13;;;19.70;46.60;;;;;;5034878;28;20026;-66
2022/05/21 02:56:07;;;;;;;2.83;1.88;;;19.70;46.60;;;;;;5035164;28;20470;-66
2022/05/21 02:58:33;;;;;;;3.13;2.00;;;19.70;46.60;;;;;;5034531;28;20044;-66
2022/05/21 03:00:59;;;;;;;2.30;2.10;;;19.80;46.60;;;;;;5035088;28;20434;-66
2022/05/21 03:03:24;;;;;;;3.63;2.10;;;19.80;46.60;;;;;;5034701;28;20026;-66
2022/05/21 03:05:50;;;;;;;4.18;1.88;;;19.80;46.60;;;;;;5034711;28;20376;-66
2022/05/21 03:11:01;;;;;;;3.53;2.08;;;19.80;46.50;;;;;;5034732;28;20080;-66
2022/05/21 03:13:27;;;;;;;2.40;1.80;;;19.90;46.60;;;;;;5034822;28;20025;-67
2022/05/21 03:15:53;;;;;;;3.47;2.08;;;19.90;46.60;;;;;;5034574;28;20076;-66
2022/05/21 03:18:20;;;;;;;2.13;1.90;;;19.90;46.60;;;;;;5034743;28;20034;-66
2022/05/21 03:20:46;;;;;;;2.22;1.65;;;19.90;46.60;;;;;;5034397;28;20057;-67
2022/05/21 03:23:12;;;;;;;4.00;2.13;;;20.00;46.60;;;;;;5034810;28;20115;-67
2022/05/21 03:25:38;;;;;;;2.58;2.00;;;20.00;46.70;;;;;;5033098;28;20404;-67
2022/05/21 03:28:05;;;;;;;2.33;2.08;;;20.00;46.70;;;;;;5034546;28;20030;-67
2022/05/21 03:30:32;;;;;;;5.00;2.38;;;20.00;46.60;;;;;;5034146;28;20038;-67
2022/05/21 03:32:58;;;;;;;1.95;1.75;;;20.00;46.60;;;;;;5034482;28;20471;-67
2022/05/21 03:35:25;;;;;;;1.85;1.60;;;20.10;46.70;;;;;;5034250;28;20033;-67
2022/05/21 03:37:51;;;;;;;2.58;2.10;;;20.10;46.70;;;;;;5033071;28;20032;-67
2022/05/21 03:40:21;;;;;;;2.80;1.90;;;20.10;46.70;;;;;;5034086;28;20030;-66
2022/05/21 03:42:47;;;;;;;2.65;1.95;;;20.20;46.80;;;;;;5034382;28;20039;-66
2022/05/21 03:45:14;;;;;;;2.30;2.10;;;20.20;46.80;;;;;;5034256;28;20033;-67
2022/05/21 03:47:41;;;;;;;2.33;2.00;;;20.30;46.90;;;;;;5033905;28;20044;-66
2022/05/21 03:50:12;;;;;;;2.88;1.95;;;20.30;46.90;;;;;;5032837;28;20029;-66
2022/05/21 03:52:38;;;;;;;2.38;2.05;;;20.30;46.90;;;;;;5033002;28;20048;-67
2022/05/21 03:55:04;;;;;;;2.92;2.10;;;20.40;47.00;;;;;;5033860;28;20471;-66
2022/05/21 03:57:31;;;;;;;2.50;1.88;;;20.40;46.90;;;;;;5033106;28;20036;-66
2022/05/21 03:59:57;;;;;;;2.10;1.90;;;20.50;47.10;;;;;;5034063;28;20112;-66
2022/05/21 04:02:23;;;;;;;2.20;2.00;;;20.50;47.10;;;;;;5033593;28;20104;-67
2022/05/21 04:04:49;;;;;;;2.42;2.08;;;20.60;47.10;;;;;;5032609;28;20025;-67
2022/05/21 04:07:15;;;;;;;2.40;2.20;;;20.60;47.20;;;;;;5033882;28;20029;-67
2022/05/21 04:09:41;;;;;;;3.60;2.10;;;20.60;47.20;;;;;;5033377;28;20455;-66
2022/05/21 04:12:07;;;;;;;2.53;2.05;;;20.70;47.30;;;;;;5033844;28;20490;-66
2022/05/21 04:14:33;;;;;;;2.63;2.10;;;20.70;47.30;;;;;;5032378;28;20034;-67
2022/05/21 04:17:01;;;;;;;3.85;2.13;;;20.70;47.30;;;;;;5033511;28;20028;-67
2022/05/21 04:19:28;;;;;;;3.22;2.20;;;20.80;47.40;;;;;;5032504;28;20061;-66
2022/05/21 04:21:54;;;;;;;4.88;2.40;;;20.80;47.40;;;;;;5033817;28;20025;-67
2022/05/21 04:24:20;;;;;;;3.15;2.30;;;20.90;47.50;;;;;;5033580;28;20379;-66
2022/05/21 04:26:46;;;;;;;3.42;2.05;;;20.90;47.50;;;;;;5033644;28;20050;-66
2022/05/21 04:29:14;;;;;;;3.22;2.15;;;21.00;47.60;;;;;;5032003;28;20068;-67
2022/05/21 04:31:40;;;;;;;2.63;2.10;;;21.10;47.60;;;;;;5032918;28;20083;-66
2022/05/21 04:34:06;;;;;;;2.72;2.20;;;21.00;47.60;;;;;;5033565;28;20410;-67
2022/05/21 04:36:32;;;;;;;2.28;1.95;;;21.10;47.60;;;;;;5032305;28;20052;-65
2022/05/21 04:38:58;;;;;;;2.17;1.80;;;21.10;47.70;;;;;;5031974;28;20030;-66
2022/05/21 04:41:25;;;;;;;2.30;2.10;;;21.10;47.70;;;;;;5033242;28;20025;-66
2022/05/21 04:43:52;;;;;;;2.75;2.05;;;21.20;47.70;;;;;;5033195;28;20022;-66
2022/05/21 04:46:18;;;;;;;2.70;2.20;;;21.20;47.70;;;;;;5032294;28;20033;-66
2022/05/21 04:48:45;;;;;;;2.10;1.90;;;21.30;47.70;;;;;;5033264;28;20037;-66
2022/05/21 04:51:11;;;;;;;3.10;2.20;;;21.40;47.80;;;;;;5033321;28;20025;-65
2022/05/21 04:53:37;;;;;;;2.78;2.03;;;21.40;47.80;;;;;;5033343;28;20159;-67
2022/05/21 04:56:05;;;;;;;2.13;1.92;;;21.50;47.80;;;;;;5033327;28;20278;-67
2022/05/21 04:58:31;;;;;;;3.13;2.30;;;21.50;47.80;;;;;;5033130;28;20103;-67
2022/05/21 05:00:57;;;;;;;2.33;1.90;;;21.60;47.90;;;;;;5032056;28;20029;-67
2022/05/21 05:03:22;;;;;;;2.58;2.10;;;21.60;47.90;;;;;;5028881;28;20426;-66
2022/05/21 05:05:49;;;;;;;5.15;2.33;;;21.70;47.90;;;;;;5031899;28;20121;-66
2022/05/21 05:08:16;;;;;;;2.72;2.08;;;21.70;47.90;;;;;;5033407;28;20037;-66
2022/05/21 05:10:46;;;;;;;2.97;2.15;;;21.80;47.90;;;;;;5033140;28;20034;-66
2022/05/21 05:13:13;;;;;;;4.00;2.15;;;21.80;47.90;;;;;;5025958;28;20041;-68
2022/05/21 05:15:39;;;;;;;3.10;2.15;;;21.90;47.90;;;;;;5021589;28;20116;-68
2022/05/21 05:18:08;;;;;;;3.30;2.10;;;21.90;47.90;;;;;;5022642;28;20029;-68
2022/05/21 05:20:35;;;;;;;3.38;2.05;;;21.90;47.90;;;;;;5022147;28;20471;-67
2022/05/21 05:23:01;;;;;;;3.15;1.95;;;22.00;48.00;;;;;;5024720;28;20030;-67
2022/05/21 05:25:28;;;;;;;3.28;2.50;;;22.00;48.00;;;;;;5022922;28;20076;-67
2022/05/21 05:27:53;;;;;;;3.03;2.05;;;22.00;48.00;;;;;;5025620;28;20447;-67
2022/05/21 05:30:20;;;;;;;4.93;2.78;;;22.10;48.00;;;;;;5025800;28;20081;-68
2022/05/21 05:32:46;;;;;;;2.47;2.10;;;22.10;48.00;;;;;;5015860;28;20033;-67
2022/05/21 05:35:12;;;;;;;3.47;2.28;;;22.10;48.10;;;;;;5015825;28;20534;-66
2022/05/21 05:37:39;;;;;;;2.30;2.10;;;22.20;48.10;;;;;;5015611;28;20036;-66
2022/05/21 05:40:07;;;;;;;3.85;2.38;;;22.10;48.10;;;;;;5023449;28;20034;-66
2022/05/21 05:42:35;;;;;;;4.70;2.40;;;22.20;48.20;;;;;;5015612;28;20108;-68
2022/05/21 05:45:02;;;;;;;3.83;2.15;;;22.10;48.20;;;;;;5015604;28;20034;-67
2022/05/21 05:47:28;;;;;;;3.30;2.38;;;22.20;48.30;;;;;;5015572;28;20030;-66
2022/05/21 05:49:54;;;;;;;3.58;2.28;;;22.20;48.30;;;;;;5019730;28;20089;-68
2022/05/21 05:52:20;;;;;;;2.90;2.22;;;22.20;48.40;;;;;;5024656;28;20034;-65
2022/05/21 05:54:46;;;;;;;2.50;2.22;;;22.10;48.40;;;;;;5026204;28;20029;-67
2022/05/21 05:57:12;;;;;;;2.83;2.38;;;22.20;48.50;;;;;;5034084;28;20029;-67
2022/05/21 05:59:51;;;;;;;3.17;2.20;;;22.20;48.50;;;;;;5033915;28;20424;-67
2022/05/21 06:05:09;;;;;;;2.88;2.33;;;22.30;48.50;;;;;;5022406;28;20170;-65
2022/05/21 06:07:47;;;;;;;2.45;2.08;;;22.30;48.40;;;;;;5033632;28;20029;-67
2022/05/21 06:10:16;;;;;;;3.53;2.20;;;22.40;48.50;;;;;;5026534;28;20407;-68
2022/05/21 06:12:42;;;;;;;3.22;2.30;;;22.40;48.50;;;;;;5019400;28;20034;-66
2022/05/21 06:15:09;;;;;;;3.50;2.00;;;22.50;48.50;;;;;;5029801;28;21125;-67
2022/05/21 06:17:36;;;;;;;2.58;2.10;;;22.50;48.40;;;;;;5027223;28;20100;-66
2022/05/21 06:20:03;;;;;;;4.00;2.42;;;22.60;48.50;;;;;;5026035;28;20033;-66
2022/05/21 06:22:28;;;;;;;3.75;2.13;;;22.70;48.40;;;;;;5017328;28;20030;-71
2022/05/21 06:24:54;;;;;;;4.20;2.05;;;22.70;48.30;;;;;;5014446;28;20076;-71
2022/05/21 06:27:19;;;;;;;2.55;2.08;;;22.70;48.30;;;;;;5015592;28;20058;-71
2022/05/21 06:29:47;;;;;;;4.28;2.40;;;22.90;48.30;;;;;;5015709;28;20034;-71
2022/05/21 06:32:13;;;;;;;2.95;2.10;;;22.90;48.30;;;;;;5015604;28;20041;-72
2022/05/21 06:34:39;;;;;;;3.08;2.17;;;23.00;48.20;;;;;;5014342;28;20025;-71
2022/05/21 06:37:10;;;;;;;2.50;2.30;;;23.00;48.20;;;;;;4996581;28;20464;-71
2022/05/21 06:39:37;;;;;;;4.40;2.40;;;23.10;48.20;;;;;;5015620;28;20040;-70
2022/05/21 06:42:03;;;;;;;2.70;2.10;;;23.10;48.20;;;;;;5014587;28;20026;-70
2022/05/21 06:44:30;;;;;;;2.80;2.22;;;23.20;48.20;;;;;;5015611;28;20080;-70
2022/05/21 06:46:56;;;;;;;2.97;2.10;;;23.20;48.10;;;;;;5015381;28;20030;-72
2022/05/21 06:49:22;;;;;;;2.63;2.42;;;23.30;48.10;;;;;;5013923;28;20048;-70
2022/05/21 06:51:54;;;;;;;4.90;2.40;;;23.30;48.00;;;;;;5015486;28;20045;-70
2022/05/21 06:54:20;;;;;;;3.25;2.33;;;23.40;48.10;;;;;;5015283;28;20026;-70
2022/05/21 06:56:46;;;;;;;2.60;2.13;;;23.50;48.00;;;;;;5015153;28;20025;-70
2022/05/21 06:59:11;;;;;;;2.67;2.10;;;23.50;47.90;;;;;;5015469;28;20461;-73
2022/05/21 07:01:37;;;;;;;2.85;2.17;;;23.50;47.80;;;;;;5013861;28;20028;-71
2022/05/21 07:04:03;;;;;;;2.70;2.30;;;23.50;47.70;;;;;;5015197;28;20313;-71
2022/05/21 07:09:13;;;;;;;4.45;2.40;;;23.60;47.80;;;;;;5014947;28;20032;-71
2022/05/21 07:11:39;;;;;;;3.80;2.10;;;23.60;47.80;;;;;;5014901;28;20049;-70
2022/05/21 07:14:05;;;;;;;2.70;2.35;;;23.60;47.80;;;;;;5014703;28;20026;-70
2022/05/21 07:16:31;;;;;;;2.60;2.30;;;23.60;47.80;;;;;;5015341;28;20033;-70
2022/05/21 07:18:56;;;;;;;4.65;2.30;;;23.60;47.80;;;;;;5014799;28;20033;-72
2022/05/21 07:21:22;;;;;;;3.55;2.58;;;23.60;47.70;;;;;;5014799;28;20025;-70
2022/05/21 07:23:48;;;;;;;4.75;2.20;;;23.60;47.70;;;;;;5014626;28;20109;-70
2022/05/21 07:26:15;;;;;;;4.40;2.40;;;23.70;47.80;;;;;;5015109;28;20042;-70
2022/05/21 07:28:41;;;;;;;4.03;2.15;;;23.70;47.80;;;;;;5014525;28;20044;-72
2022/05/21 07:31:08;;;;;;;3.67;2.38;;;23.80;47.80;;;;;;5014271;28;20061;-70
2022/05/21 07:33:34;;;;;;;3.95;2.70;;;23.80;47.80;;;;;;5014509;28;20026;-70
2022/05/21 07:35:59;;;;;;;3.50;2.25;;;23.90;47.70;;;;;;5014395;28;20061;-70
2022/05/21 07:38:25;;;;;;;3.28;2.60;;;23.90;47.60;;;;;;5014233;28;20062;-70
2022/05/21 07:40:52;;;;;;;2.40;2.20;;;24.00;47.60;;;;;;5014536;28;20029;-71
2022/05/21 07:43:22;;;;;;;2.83;2.30;;;24.10;47.50;;;;;;5012973;28;20084;-71
2022/05/21 07:45:47;;;;;;;3.70;2.22;;;24.20;47.50;;;;;;5012549;28;20030;-71
2022/05/21 07:48:16;;;;;;;4.07;2.22;;;24.20;47.50;;;;;;5014434;28;20044;-71
2022/05/21 07:50:44;;;;;;;4.00;2.20;;;24.30;47.40;;;;;;5012844;28;20022;-71
2022/05/21 07:53:20;;;;;;;3.55;2.40;;;24.40;47.40;;;;;;5014444;28;20065;-69
2022/05/21 07:55:48;;;;;;;2.78;2.15;;;24.40;47.30;;;;;;5014380;28;20029;-70
2022/05/21 07:58:15;;;;;;;3.50;2.40;;;24.50;47.30;;;;;;5014182;28;20033;-70
2022/05/21 08:00:41;;;;;;;2.85;2.08;;;24.60;47.20;;;;;;5014070;28;20472;-70
2022/05/21 08:03:10;;;;;;;3.20;2.40;;;24.70;47.20;;;;;;5011570;28;20030;-70
2022/05/21 08:05:37;;;;;;;2.90;2.28;;;24.70;47.00;;;;;;5013765;28;20032;-70
2022/05/21 08:08:04;;;;;;;2.97;2.40;;;24.80;47.00;;;;;;5013728;28;20235;-70
2022/05/21 08:10:29;;;;;;;2.75;2.28;;;24.90;47.00;;;;;;5014463;28;20374;-70
2022/05/21 08:12:55;;;;;;;2.60;2.38;;;24.90;46.80;;;;;;5014007;28;20037;-71
2022/05/21 08:15:21;;;;;;;2.42;2.17;;;24.90;46.80;;;;;;5014253;28;20549;-70
2022/05/21 08:17:47;;;;;;;2.67;2.22;;;25.00;46.70;;;;;;5013692;28;20384;-70
2022/05/21 08:20:13;;;;;;;2.92;2.50;;;25.00;46.70;;;;;;5013784;28;20030;-70
2022/05/21 08:28:10;;;;;;;3.42;2.40;;;25.20;46.70;;;;;;5013643;28;20041;-70
2022/05/21 08:30:35;;;;;;;3.35;2.65;;;25.20;46.60;;;;;;5013699;28;20038;-70
2022/05/21 08:33:06;;;;;;;4.00;2.33;;;25.20;46.60;;;;;;5013539;28;20069;-71
2022/05/21 08:35:32;;;;;;;4.88;2.40;;;25.20;46.60;;;;;;5012544;28;20033;-71
2022/05/21 08:37:58;;;;;;;3.28;2.38;;;25.30;46.60;;;;;;5012637;28;20049;-71
2022/05/21 08:40:42;;;;;;;3.55;2.40;;;25.30;46.60;;;;;;5013732;28;20030;-70
2022/05/21 08:43:19;;;;;;;3.03;2.20;;;25.40;46.60;;;;;;5013484;28;20022;-70
2022/05/21 08:45:57;;;;;;;3.13;2.38;;;25.40;46.50;;;;;;5012310;28;20026;-70
2022/05/21 08:48:24;;;;;;;2.67;2.35;;;25.40;46.50;;;;;;5013424;28;20096;-70
2022/05/21 08:50:54;;;;;;;2.67;2.30;;;25.40;46.50;;;;;;5013755;28;20061;-70
2022/05/21 08:53:25;;;;;;;4.95;2.80;;;25.50;46.50;;;;;;5012084;28;20022;-70
2022/05/21 08:55:55;;;;;;;3.90;2.55;;;25.50;46.40;;;;;;5012342;28;20033;-70
2022/05/21 08:58:45;;;;;;;3.60;2.30;;;25.50;46.50;;;;;;5016064;28;20427;-72
2022/05/21 09:01:13;;;;;;;2.75;2.38;;;25.50;46.50;;;;;;5017002;28;20033;-71
2022/05/21 09:03:39;;;;;;;2.63;2.38;;;25.50;46.40;;;;;;5015510;28;20029;-71
2022/05/21 09:06:17;;;;;;;3.35;2.47;;;25.40;47.00;;;;;;5017017;28;20032;-71
2022/05/21 09:09:08;;;;;;;3.33;2.50;;;25.40;46.50;;;;;;5017005;28;20061;-71
2022/05/21 09:12:10;;;;;;;3.83;2.20;;;25.40;46.60;;;;;;5025091;28;20049;-71
2022/05/21 09:14:42;;;;;;;2.55;2.17;;;25.30;47.30;;;;;;5019875;28;20555;-71
2022/05/21 09:17:13;;;;;;;2.92;2.38;;;25.20;46.70;;;;;;5016650;28;20026;-71
2022/05/21 09:19:57;;;;;;;3.63;2.58;;;25.20;46.70;;;;;;5016762;28;20088;-71
2022/05/21 09:22:24;;;;;;;2.72;2.40;;;25.20;46.90;;;;;;5016851;28;20029;-70
2022/05/21 09:24:52;;;;;;;3.38;2.40;;;25.20;46.90;;;;;;5015131;28;20048;-70
2022/05/21 09:27:34;;;;;;;4.63;2.10;;;25.20;46.90;;;;;;5015435;28;20029;-70
2022/05/21 09:30:15;;;;;;;3.05;2.45;;;25.30;47.00;;;;;;5016875;28;20065;-70
2022/05/21 09:32:44;;;;;;;2.47;2.28;;;25.30;47.00;;;;;;5016744;28;20033;-70
2022/05/21 09:35:28;;;;;;;2.65;2.35;;;25.30;47.00;;;;;;5015161;28;20101;-69
2022/05/21 09:37:55;;;;;;;3.67;2.55;;;25.30;47.00;;;;;;5016515;28;20045;-70
2022/05/21 09:40:22;;;;;;;4.22;2.40;;;25.30;47.00;;;;;;5016617;28;20030;-70
2022/05/21 09:45:36;;;;;;;3.47;2.30;;;25.40;47.00;;;;;;5017032;28;20076;-71
2022/05/21 09:48:05;;;;;;;4.15;2.30;;;25.50;47.00;;;;;;5016264;28;20130;-71
2022/05/21 09:50:49;;;;;;;2.63;2.42;;;25.50;47.00;;;;;;5015372;28;20056;-70
2022/05/21 09:53:26;;;;;;;4.03;2.40;;;25.50;47.10;;;;;;5016513;28;20033;-71
2022/05/21 09:56:05;;;;;;;3.00;2.40;;;25.50;47.00;;;;;;5016181;28;20403;-70
2022/05/21 09:58:38;;;;;;;2.60;2.40;;;25.60;47.00;;;;;;5016135;28;20026;-70
2022/05/21 10:01:06;;;;;;;3.25;2.20;;;25.60;46.90;;;;;;5015260;28;20499;-71
2022/05/21 10:03:45;;;;;;;2.97;2.50;;;25.60;46.90;;;;;;5015918;28;20029;-70
2022/05/21 10:06:34;;;;;;;2.47;2.28;;;25.70;47.00;;;;;;5016197;28;20021;-71
2022/05/21 10:11:58;;;;;;;2.50;2.30;;;25.80;46.80;;;;;;5016151;28;20052;-71
2022/05/21 10:14:41;;;;;;;4.07;2.28;;;25.90;46.80;;;;;;5016416;28;20113;-72
2022/05/21 10:17:32;;;;;;;2.28;2.00;;;25.90;46.80;;;;;;5014495;28;20460;-72
2022/05/21 10:20:16;;;;;;;2.45;2.05;;;26.00;46.80;;;;;;5014060;28;20412;-71
2022/05/21 10:23:13;;;;;;;3.40;2.42;;;26.00;46.70;;;;;;5014525;28;20029;-69
2022/05/21 10:26:01;;;;;;;2.38;2.15;;;26.00;46.70;;;;;;5015853;28;20337;-70
2022/05/21 10:28:38;;;;;;;3.47;2.47;;;26.10;46.60;;;;;;5016028;28;20030;-70
2022/05/21 10:31:22;;;;;;;4.68;2.30;;;26.10;46.60;;;;;;5014432;28;20030;-70
2022/05/21 10:34:17;;;;;;;2.65;2.35;;;26.10;46.50;;;;;;5015368;28;20387;-71
2022/05/21 10:37:04;;;;;;;2.63;2.30;;;26.10;46.50;;;;;;5015631;28;20049;-70
2022/05/21 10:40:16;;;;;;;3.20;2.40;;;26.10;46.60;;;;;;5014376;28;20084;-70
2022/05/21 10:43:00;;;;;;;3.05;2.50;;;26.00;46.60;;;;;;5032948;28;20029;-70
2022/05/21 10:45:33;;;;;;;4.82;2.60;;;26.00;46.60;;;;;;5033003;28;20029;-70
2022/05/21 10:48:23;;;;;;;4.05;2.20;;;26.00;46.60;;;;;;5020822;28;20038;-70
2022/05/21 10:50:54;;;;;;;3.35;2.35;;;26.00;46.60;;;;;;5015111;28;20122;-70
2022/05/21 10:53:48;;;;;;;2.40;2.20;;;26.00;46.50;;;;;;5015337;28;20037;-72
2022/05/21 10:56:34;;;;;;;2.45;2.25;;;26.00;46.60;;;;;;5015163;28;20037;-70
2022/05/21 10:59:35;;;;;;;3.13;2.10;;;26.10;46.60;;;;;;5014949;28;20037;-71
2022/05/21 11:02:18;;;;;;;2.50;2.30;;;26.10;46.50;;;;;;5013201;28;20128;-70
2022/05/21 11:04:58;;;;;;;3.30;2.20;;;26.20;46.50;;;;;;5013894;28;20117;-70
2022/05/21 11:07:36;;;;;;;2.60;2.40;;;26.20;46.40;;;;;;5014958;28;20037;-71
2022/05/21 11:10:11;;;;;;;5.05;2.55;;;26.20;46.30;;;;;;5015349;28;20026;-71
2022/05/21 11:13:00;;;;;;;3.72;2.40;;;26.30;46.30;;;;;;5014976;28;20064;-71
2022/05/21 11:15:32;;;;;;;3.22;2.58;;;26.30;46.20;;;;;;5014437;28;20121;-71
2022/05/21 11:18:16;;;;;;;2.08;1.90;;;26.20;46.20;;;;;;5013436;28;20022;-70
2022/05/21 11:20:55;;;;;;;2.40;2.20;;;26.10;46.10;;;;;;5012855;28;20030;-70
2022/05/21 11:23:26;;;;;;;3.63;2.33;;;26.00;46.20;;;;;;5014770;28;20057;-70
2022/05/21 11:26:24;;;;;;;3.13;2.40;;;25.80;46.30;;;;;;5014316;28;20042;-70
2022/05/21 11:28:55;;;;;;;4.45;2.35;;;25.70;46.40;;;;;;5013166;28;20036;-70
2022/05/21 11:37:21;;;;;;;2.80;2.50;;;25.10;47.10;;;;;;5014821;28;20040;-71
2022/05/21 11:39:52;;;;;;;3.67;2.50;;;25.00;47.70;;;;;;5013568;28;20456;-71
2022/05/21 11:42:23;;;;;;;3.92;2.53;;;24.80;49.10;;;;;;5014587;28;20485;-71
2022/05/21 11:44:56;;;;;;;2.60;2.30;;;24.60;49.50;;;;;;5013213;28;20065;-71
2022/05/21 11:47:21;;;;;;;4.30;2.40;;;24.50;49.70;;;;;;5013214;28;20501;-70
2022/05/21 11:49:53;;;;;;;2.47;2.28;;;24.40;50.00;;;;;;5014313;28;20061;-70
2022/05/21 11:52:27;;;;;;;3.25;2.70;;;24.30;50.60;;;;;;5014358;28;20468;-70
2022/05/21 11:54:53;;;;;;;2.45;2.20;;;24.20;51.40;;;;;;5014306;28;20029;-70
2022/05/21 11:57:42;;;;;;;3.20;2.35;;;24.20;51.50;;;;;;5014287;28;20066;-72
2022/05/21 12:00:24;;;;;;;3.33;2.65;;;24.00;52.40;;;;;;5014087;28;20062;-70
2022/05/21 12:02:56;;;;;;;3.72;2.60;;;24.00;52.60;;;;;;5014298;28;20104;-71
2022/05/21 12:05:48;;;;;;;3.13;2.50;;;23.90;52.10;;;;;;5014218;28;20040;-69
2022/05/21 12:08:23;;;;;;;3.50;2.53;;;23.90;52.60;;;;;;5014069;28;20464;-71
2022/05/21 12:11:36;;;;;;;2.95;2.67;;;23.90;52.40;;;;;;5014064;28;20124;-70
2022/05/21 12:14:05;;;;;;;2.90;2.55;;;23.90;53.10;;;;;;5018340;28;20048;-72
2022/05/21 12:16:30;;;;;;;2.92;2.58;;;23.80;52.30;;;;;;5012752;28;20036;-72
2022/05/21 12:19:00;;;;;;;3.95;2.53;;;23.80;52.40;;;;;;5013954;28;20108;-70
2022/05/21 12:23:59;;;;;;;5.18;2.83;;;23.80;53.10;;;;;;5013702;28;20380;-71
2022/05/21 12:26:32;;;;;;;2.90;2.70;;;23.80;53.30;;;;;;5013991;28;20124;-72
2022/05/21 12:29:10;;;;;;;2.83;2.63;;;23.70;53.70;;;;;;5013983;28;20033;-71
2022/05/21 12:31:49;;;;;;;4.43;2.60;;;23.60;54.20;;;;;;5016785;28;20516;-71
2022/05/21 12:34:33;;;;;;;3.50;3.10;;;23.50;54.60;;;;;;5020144;28;20376;-72
2022/05/21 12:37:20;;;;;;;2.80;2.50;;;23.50;55.50;;;;;;5019848;28;20068;-71
2022/05/21 12:40:09;;;;;;;3.42;2.70;;;23.40;55.20;;;;;;5018956;28;20478;-70
2022/05/21 12:42:57;;;;;;;3.50;2.75;;;23.40;56.00;;;;;;5018903;28;20495;-71
2022/05/21 12:45:45;;;;;;;3.50;2.78;;;23.30;55.20;;;;;;5019490;28;20064;-72
2022/05/21 12:48:23;;;;;;;2.88;2.58;;;23.30;55.60;;;;;;5019071;28;20037;-71
2022/05/21 12:51:00;;;;;;;2.55;2.35;;;23.30;55.90;;;;;;5018964;28;20123;-71
2022/05/21 12:53:26;;;;;;;2.85;2.60;;;23.30;55.90;;;;;;5020363;28;20108;-70
2022/05/21 12:56:01;;;;;;;4.32;2.90;;;23.30;55.90;;;;;;5019920;28;20025;-71
2022/05/21 12:58:27;;;;;;;4.47;2.67;;;23.30;56.60;;;;;;5019826;28;20033;-71
2022/05/21 13:00:55;;;;;;;4.03;2.78;;;23.30;56.20;;;;;;5018715;28;20025;-70
2022/05/21 13:03:25;;;;;;;3.47;2.75;;;23.30;56.20;;;;;;5019961;28;20116;-71
2022/05/21 13:06:00;;;;;;;4.90;3.00;;;23.30;56.40;;;;;;5018948;28;20029;-70
2022/05/21 13:08:28;;;;;;;3.83;2.70;;;23.30;56.40;;;;;;5019371;28;20121;-70
2022/05/21 13:11:02;;;;;;;4.22;2.85;;;23.30;56.40;;;;;;5019755;28;20033;-70
2022/05/21 13:13:34;;;;;;;2.80;2.50;;;23.40;56.70;;;;;;5020108;28;20033;-70
2022/05/21 13:16:02;;;;;;;3.28;2.63;;;23.40;56.60;;;;;;5019789;28;20118;-72
2022/05/21 13:19:05;;;;;;;2.70;2.50;;;23.50;56.50;;;;;;5019857;28;20028;-70
2022/05/21 13:21:49;;;;;;;2.60;2.40;;;23.60;56.80;;;;;;5019868;28;20022;-70
2022/05/21 13:24:34;;;;;;;3.00;2.72;;;23.80;56.70;;;;;;5019740;28;20388;-69
2022/05/21 13:27:08;;;;;;;2.85;2.50;;;24.00;56.30;;;;;;5018579;28;20396;-69
2022/05/21 13:29:33;;;;;;;;;;;24.10;55.80;;;;;;5020424;28;20065;-70
2022/05/21 13:32:13;;;;;;;3.25;2.70;;;24.20;56.90;;;;;;5019548;28;20308;-70
2022/05/21 13:34:39;;;;;;;3.05;2.40;;;24.30;56.10;;;;;;5019043;28;20120;-70
2022/05/21 13:37:06;;;;;;;5.60;2.70;;;24.40;55.50;;;;;;5019527;28;20109;-70